Time;durP1;ratioP1;P1;durP2;ratioP2;P2;SDS_P1;SDS_P2;PMS_P1;PMS_P2;Temp;Humidity;BMP_temperature;BMP_pressure;BME280_temperature;BME280_humidity;BME280_pressure;Samples;Min_cycle;Max_cycle;Signal;HPM_P1;HPM_P2
2021/09/08 00:01:57;;;;;;;20.05;6.82;;;;;;;;;;4925321;29;20793;-46
2021/09/08 00:04:23;;;;;;;13.88;6.65;;;;;;;;;;4925216;29;20028;-43
2021/09/08 00:06:49;;;;;;;11.30;6.25;;;;;;;;;;4925081;29;20050;-44
2021/09/08 00:09:16;;;;;;;14.68;6.32;;;;;;;;;;4925138;29;20039;-45
2021/09/08 00:11:42;;;;;;;26.30;14.73;;;;;;;;;;4925183;29;20038;-47
2021/09/08 00:14:09;;;;;;;47.25;26.48;;;;;;;;;;4925225;29;20032;-48
2021/09/08 00:16:37;;;;;;;36.10;19.02;;;;;;;;;;4925831;29;20031;-46
2021/09/08 00:19:03;;;;;;;37.28;21.40;;;;;;;;;;4928266;29;20072;-46
2021/09/08 00:21:29;;;;;;;32.88;14.65;;;;;;;;;;4928971;29;20031;-45
2021/09/08 00:23:55;;;;;;;21.60;8.10;;;;;;;;;;4928691;29;20020;-44
2021/09/08 00:26:21;;;;;;;34.95;17.38;;;;;;;;;;4928730;29;20031;-45
2021/09/08 00:28:48;;;;;;;35.03;18.25;;;;;;;;;;4928877;29;20024;-44
2021/09/08 00:31:14;;;;;;;18.02;9.57;;;;;;;;;;4928797;29;20063;-44
2021/09/08 00:33:40;;;;;;;28.13;13.20;;;;;;;;;;4928830;29;20904;-43
2021/09/08 00:36:06;;;;;;;24.73;13.60;;;;;;;;;;4928517;29;20038;-44
2021/09/08 00:38:34;;;;;;;21.70;11.95;;;;;;;;;;4929649;29;20367;-45
2021/09/08 00:41:00;;;;;;;17.30;7.57;;;;;;;;;;4928201;29;20040;-45
2021/09/08 00:43:26;;;;;;;12.77;6.82;;;;;;;;;;4930158;29;20252;-51
2021/09/08 00:45:53;;;;;;;15.57;7.50;;;;;;;;;;4928283;29;20031;-48
2021/09/08 00:48:19;;;;;;;13.60;6.97;;;;;;;;;;4928471;29;20070;-43
2021/09/08 00:50:46;;;;;;;11.63;7.28;;;;;;;;;;4928472;29;20200;-46
2021/09/08 00:53:13;;;;;;;15.07;7.40;;;;;;;;;;4928460;29;20135;-46
2021/09/08 00:55:39;;;;;;;17.17;7.50;;;;;;;;;;4928082;29;20039;-46
2021/09/08 00:58:05;;;;;;;11.75;6.78;;;;;;;;;;4929304;29;20019;-45
2021/09/08 01:00:31;;;;;;;14.27;7.28;;;;;;;;;;4934680;29;20040;-46
2021/09/08 01:02:57;;;;;;;12.90;8.23;;;;;;;;;;4939309;29;20111;-49
2021/09/08 01:05:25;;;;;;;10.52;6.55;;;;;;;;;;4938887;29;20036;-49
2021/09/08 01:07:51;;;;;;;11.32;7.40;;;;;;;;;;4938579;29;20048;-50
2021/09/08 01:10:18;;;;;;;13.85;6.93;;;;;;;;;;4938745;29;20039;-49
2021/09/08 01:12:44;;;;;;;12.15;6.25;;;;;;;;;;4938738;29;20026;-52
2021/09/08 01:15:12;;;;;;;13.65;7.10;;;;;;;;;;4938548;29;20512;-44
2021/09/08 01:17:38;;;;;;;18.20;7.50;;;;;;;;;;4938514;29;20028;-47
2021/09/08 01:20:04;;;;;;;13.68;6.88;;;;;;;;;;4938765;29;20043;-43
2021/09/08 01:22:31;;;;;;;19.15;7.40;;;;;;;;;;4938496;29;20400;-43
2021/09/08 01:24:58;;;;;;;9.60;6.60;;;;;;;;;;4938470;29;20177;-43
2021/09/08 01:27:25;;;;;;;14.10;7.10;;;;;;;;;;4938388;29;20023;-46
2021/09/08 01:29:51;;;;;;;17.70;6.72;;;;;;;;;;4938059;29;20507;-45
2021/09/08 01:32:17;;;;;;;12.13;6.68;;;;;;;;;;4938625;29;20028;-45
2021/09/08 01:34:43;;;;;;;15.23;7.63;;;;;;;;;;4938215;29;20032;-46
2021/09/08 01:37:12;;;;;;;20.17;8.55;;;;;;;;;;4938435;29;20036;-46
2021/09/08 01:39:38;;;;;;;18.23;9.00;;;;;;;;;;4938180;29;20032;-44
2021/09/08 01:42:04;;;;;;;23.17;12.20;;;;;;;;;;4937141;29;20480;-45
2021/09/08 01:44:35;;;;;;;18.02;10.70;;;;;;;;;;4938076;29;20401;-45
2021/09/08 01:47:01;;;;;;;15.85;9.18;;;;;;;;;;4938312;29;20484;-44
2021/09/08 01:49:27;;;;;;;20.45;9.98;;;;;;;;;;4938369;29;20032;-47
2021/09/08 01:51:53;;;;;;;20.55;10.93;;;;;;;;;;4937992;29;20469;-45
2021/09/08 01:54:20;;;;;;;16.13;10.02;;;;;;;;;;4938007;29;20104;-45
2021/09/08 01:56:46;;;;;;;14.18;8.93;;;;;;;;;;4937878;29;20031;-46
2021/09/08 01:59:13;;;;;;;14.23;8.77;;;;;;;;;;4937744;29;20038;-44
2021/09/08 02:01:39;;;;;;;14.05;9.18;;;;;;;;;;4938092;29;20087;-45
2021/09/08 02:04:05;;;;;;;12.63;8.48;;;;;;;;;;4937881;29;20035;-45
2021/09/08 02:06:31;;;;;;;14.45;7.70;;;;;;;;;;4937627;29;20028;-45
2021/09/08 02:08:59;;;;;;;15.32;8.10;;;;;;;;;;4937636;29;20039;-45
2021/09/08 02:11:25;;;;;;;13.23;7.85;;;;;;;;;;4937606;29;20028;-45
2021/09/08 02:13:51;;;;;;;13.05;7.53;;;;;;;;;;4937443;29;20484;-44
2021/09/08 02:16:20;;;;;;;14.82;7.28;;;;;;;;;;4937765;29;20028;-44
2021/09/08 02:18:49;;;;;;;10.60;6.68;;;;;;;;;;4937533;29;20024;-44
2021/09/08 02:21:15;;;;;;;14.18;6.63;;;;;;;;;;4937489;29;20039;-44
2021/09/08 02:23:42;;;;;;;10.85;5.75;;;;;;;;;;4937513;29;20027;-45
2021/09/08 02:26:08;;;;;;;11.75;6.53;;;;;;;;;;4937205;29;20087;-44
2021/09/08 02:28:34;;;;;;;9.43;6.50;;;;;;;;;;4937239;29;20108;-49
2021/09/08 02:31:00;;;;;;;9.07;5.97;;;;;;;;;;4937229;29;20032;-45
2021/09/08 02:33:26;;;;;;;9.75;6.30;;;;;;;;;;4937312;29;20054;-45
2021/09/08 02:35:55;;;;;;;10.90;6.07;;;;;;;;;;4937165;29;20020;-49
2021/09/08 02:38:21;;;;;;;11.00;5.82;;;;;;;;;;4937031;29;20074;-50
2021/09/08 02:40:47;;;;;;;12.98;6.30;;;;;;;;;;4936376;29;20040;-47
2021/09/08 02:43:13;;;;;;;14.15;6.18;;;;;;;;;;4937052;29;20030;-49
2021/09/08 02:45:41;;;;;;;12.73;5.63;;;;;;;;;;4937115;29;20083;-45
2021/09/08 02:48:08;;;;;;;15.20;5.57;;;;;;;;;;4937056;29;20031;-49
2021/09/08 02:50:34;;;;;;;13.10;6.05;;;;;;;;;;4936819;29;20063;-45
2021/09/08 02:53:00;;;;;;;15.00;6.78;;;;;;;;;;4936982;29;20035;-48
2021/09/08 02:55:26;;;;;;;9.45;5.07;;;;;;;;;;4936945;29;20370;-46
2021/09/08 02:57:52;;;;;;;11.25;6.13;;;;;;;;;;4936925;29;20034;-46
2021/09/08 03:00:18;;;;;;;9.77;6.07;;;;;;;;;;4936681;29;20031;-47
2021/09/08 03:02:44;;;;;;;10.57;5.80;;;;;;;;;;4936685;29;20410;-48
2021/09/08 03:05:11;;;;;;;9.68;5.68;;;;;;;;;;4936613;29;20035;-47
2021/09/08 03:07:37;;;;;;;7.88;5.88;;;;;;;;;;4936369;29;20488;-49
2021/09/08 03:10:03;;;;;;;8.18;5.57;;;;;;;;;;4936519;29;20083;-47
2021/09/08 03:12:29;;;;;;;13.70;5.40;;;;;;;;;;4936583;29;20024;-47
2021/09/08 03:14:55;;;;;;;10.32;5.28;;;;;;;;;;4936683;29;20036;-47
2021/09/08 03:17:21;;;;;;;14.75;5.93;;;;;;;;;;4936550;29;20110;-45
2021/09/08 03:19:47;;;;;;;10.00;5.55;;;;;;;;;;4936752;29;20058;-45
2021/09/08 03:22:14;;;;;;;9.90;6.50;;;;;;;;;;4936546;29;20074;-44
2021/09/08 03:24:40;;;;;;;10.27;6.25;;;;;;;;;;4936415;29;20067;-44
2021/09/08 03:27:06;;;;;;;14.80;5.35;;;;;;;;;;4936228;29;20030;-44
2021/09/08 03:29:32;;;;;;;14.35;6.40;;;;;;;;;;4936563;29;20083;-47
2021/09/08 03:32:03;;;;;;;12.13;6.07;;;;;;;;;;4936488;29;20054;-43
2021/09/08 03:34:29;;;;;;;9.60;5.70;;;;;;;;;;4936327;29;20114;-44
2021/09/08 03:36:55;;;;;;;13.18;6.18;;;;;;;;;;4935993;29;20036;-44
2021/09/08 03:39:21;;;;;;;9.82;5.85;;;;;;;;;;4936152;29;20032;-46
2021/09/08 03:41:47;;;;;;;10.93;5.68;;;;;;;;;;4935945;29;20146;-43
2021/09/08 03:44:18;;;;;;;13.20;6.03;;;;;;;;;;4950761;29;20415;-44
2021/09/08 03:46:44;;;;;;;9.85;5.85;;;;;;;;;;4936287;29;20400;-45
2021/09/08 03:49:10;;;;;;;11.13;6.13;;;;;;;;;;4936232;29;20020;-44
2021/09/08 03:51:36;;;;;;;12.43;6.15;;;;;;;;;;4936026;29;20032;-43
2021/09/08 03:54:02;;;;;;;11.40;6.18;;;;;;;;;;4936012;29;20030;-44
2021/09/08 03:56:28;;;;;;;8.68;5.25;;;;;;;;;;4950603;29;20036;-44
2021/09/08 03:58:54;;;;;;;13.30;5.70;;;;;;;;;;4935771;29;20030;-44
2021/09/08 04:01:21;;;;;;;14.18;6.40;;;;;;;;;;4935871;29;20492;-43
2021/09/08 04:03:47;;;;;;;10.95;6.28;;;;;;;;;;4936032;29;20059;-43
2021/09/08 04:06:14;;;;;;;14.18;5.95;;;;;;;;;;4935738;29;20032;-46
2021/09/08 04:08:40;;;;;;;14.73;5.57;;;;;;;;;;4935800;29;20181;-44
2021/09/08 04:11:06;;;;;;;13.43;5.85;;;;;;;;;;4935789;29;20039;-43
2021/09/08 04:13:32;;;;;;;9.38;5.90;;;;;;;;;;4935943;29;20026;-43
2021/09/08 04:15:58;;;;;;;10.13;6.22;;;;;;;;;;4935703;29;20035;-44
2021/09/08 04:18:24;;;;;;;12.90;5.90;;;;;;;;;;4935649;29;20023;-44
2021/09/08 04:20:50;;;;;;;10.07;5.80;;;;;;;;;;4935645;29;20036;-46
2021/09/08 04:23:16;;;;;;;11.57;6.18;;;;;;;;;;4935957;29;20028;-44
2021/09/08 04:25:42;;;;;;;9.27;6.05;;;;;;;;;;4935669;29;20032;-44
2021/09/08 04:28:08;;;;;;;23.13;6.47;;;;;;;;;;4935752;29;20039;-43
2021/09/08 04:30:35;;;;;;;11.48;5.80;;;;;;;;;;4935731;29;20024;-44
2021/09/08 04:33:03;;;;;;;10.80;6.80;;;;;;;;;;4935991;29;20055;-46
2021/09/08 04:35:29;;;;;;;16.50;6.32;;;;;;;;;;4935592;29;20020;-44
2021/09/08 04:37:55;;;;;;;22.35;6.70;;;;;;;;;;4935497;29;20039;-44
2021/09/08 04:40:21;;;;;;;10.07;6.10;;;;;;;;;;4935606;29;20035;-44
2021/09/08 04:42:47;;;;;;;13.93;7.00;;;;;;;;;;4935664;29;20473;-46
2021/09/08 04:45:13;;;;;;;11.20;5.80;;;;;;;;;;4935518;29;20109;-47
2021/09/08 04:47:39;;;;;;;17.30;6.38;;;;;;;;;;4935629;29;20039;-44
2021/09/08 04:50:06;;;;;;;9.57;5.75;;;;;;;;;;4935698;29;20028;-46
2021/09/08 04:52:35;;;;;;;11.32;5.65;;;;;;;;;;4935545;29;20023;-45
2021/09/08 04:55:02;;;;;;;11.68;6.38;;;;;;;;;;4935577;29;20096;-46
2021/09/08 04:57:31;;;;;;;10.95;6.10;;;;;;;;;;4935334;29;20024;-46
2021/09/08 04:59:57;;;;;;;11.93;7.10;;;;;;;;;;4935447;29;20032;-46
2021/09/08 05:02:25;;;;;;;18.63;7.82;;;;;;;;;;4937803;29;20027;-45
2021/09/08 05:04:51;;;;;;;12.65;5.63;;;;;;;;;;4936910;29;20026;-48
2021/09/08 05:07:17;;;;;;;17.35;6.78;;;;;;;;;;4938545;29;20044;-48
2021/09/08 05:09:46;;;;;;;12.18;6.88;;;;;;;;;;4938855;29;20040;-47
2021/09/08 05:12:12;;;;;;;13.57;6.70;;;;;;;;;;4938627;29;20564;-47
2021/09/08 05:14:38;;;;;;;14.90;5.70;;;;;;;;;;4938634;29;20042;-45
2021/09/08 05:17:07;;;;;;;16.38;8.40;;;;;;;;;;4938655;29;20099;-45
2021/09/08 05:19:34;;;;;;;12.20;6.65;;;;;;;;;;4938332;29;20031;-45
2021/09/08 05:22:02;;;;;;;9.70;5.40;;;;;;;;;;4938589;29;20449;-45
2021/09/08 05:24:28;;;;;;;13.35;5.90;;;;;;;;;;4937402;29;20408;-44
2021/09/08 05:26:54;;;;;;;10.70;5.35;;;;;;;;;;4938517;29;20492;-45
2021/09/08 05:29:20;;;;;;;9.30;5.68;;;;;;;;;;4938490;29;20032;-44
2021/09/08 05:31:46;;;;;;;10.52;5.72;;;;;;;;;;4938447;29;20028;-45
2021/09/08 05:34:13;;;;;;;8.63;4.78;;;;;;;;;;4938837;29;20492;-45
2021/09/08 05:36:39;;;;;;;12.10;6.80;;;;;;;;;;4938675;29;20035;-46
2021/09/08 05:39:05;;;;;;;13.32;4.90;;;;;;;;;;4938663;29;20353;-45
2021/09/08 05:41:31;;;;;;;9.98;6.03;;;;;;;;;;4938419;29;20035;-47
2021/09/08 05:43:57;;;;;;;12.45;5.78;;;;;;;;;;4938243;29;20510;-47
2021/09/08 05:46:23;;;;;;;10.27;5.03;;;;;;;;;;4938504;29;20035;-47
2021/09/08 05:48:49;;;;;;;11.02;6.10;;;;;;;;;;4938400;29;20029;-48
2021/09/08 05:51:15;;;;;;;8.40;4.53;;;;;;;;;;4938313;29;20024;-47
2021/09/08 05:53:41;;;;;;;9.00;5.25;;;;;;;;;;4936928;29;20040;-48
2021/09/08 05:56:07;;;;;;;11.90;6.15;;;;;;;;;;4938111;29;20031;-44
2021/09/08 05:58:33;;;;;;;10.15;4.75;;;;;;;;;;4938204;29;20527;-43
2021/09/08 06:00:59;;;;;;;13.10;5.15;;;;;;;;;;4938288;29;20043;-46
2021/09/08 06:03:25;;;;;;;14.60;6.13;;;;;;;;;;4938109;29;20051;-42
2021/09/08 06:05:51;;;;;;;7.15;5.10;;;;;;;;;;4937790;29;20020;-47
2021/09/08 06:08:18;;;;;;;8.98;4.13;;;;;;;;;;4937664;29;20060;-46
2021/09/08 06:10:44;;;;;;;9.50;4.72;;;;;;;;;;4937933;29;20114;-46
2021/09/08 06:13:10;;;;;;;12.30;4.47;;;;;;;;;;4937861;29;20075;-47
2021/09/08 06:15:36;;;;;;;7.30;4.13;;;;;;;;;;4937024;29;20031;-43
2021/09/08 06:18:04;;;;;;;6.85;3.80;;;;;;;;;;4937683;29;20103;-44
2021/09/08 06:20:30;;;;;;;10.32;3.92;;;;;;;;;;4937528;29;20036;-44
2021/09/08 06:22:56;;;;;;;10.30;4.00;;;;;;;;;;4937589;29;20039;-45
2021/09/08 06:25:23;;;;;;;13.52;4.25;;;;;;;;;;4937753;29;20027;-44
2021/09/08 06:27:49;;;;;;;9.93;4.13;;;;;;;;;;4937452;29;20031;-45
2021/09/08 06:30:15;;;;;;;12.10;3.90;;;;;;;;;;4937400;29;20027;-44
2021/09/08 06:32:41;;;;;;;7.65;3.65;;;;;;;;;;4937450;29;20019;-46
2021/09/08 06:35:08;;;;;;;8.82;4.03;;;;;;;;;;4936129;29;20040;-45
2021/09/08 06:37:34;;;;;;;9.55;4.20;;;;;;;;;;4937255;29;20099;-44
2021/09/08 06:40:00;;;;;;;8.23;4.18;;;;;;;;;;4937331;29;20047;-47
2021/09/08 06:42:26;;;;;;;6.82;3.67;;;;;;;;;;4937287;29;20062;-45
2021/09/08 06:44:53;;;;;;;8.65;2.92;;;;;;;;;;4937247;29;20529;-48
2021/09/08 06:47:27;;;;;;;4.57;2.92;;;;;;;;;;4937270;29;20042;-46
2021/09/08 06:49:53;;;;;;;8.80;3.22;;;;;;;;;;4937181;29;20062;-46
2021/09/08 06:52:20;;;;;;;9.27;2.70;;;;;;;;;;4937151;29;20028;-47
2021/09/08 06:54:46;;;;;;;7.43;3.17;;;;;;;;;;4936964;29;20428;-46
2021/09/08 06:57:13;;;;;;;8.77;3.58;;;;;;;;;;4936983;29;20395;-47
2021/09/08 06:59:40;;;;;;;5.65;2.72;;;;;;;;;;4936917;29;20465;-45
2021/09/08 07:02:07;;;;;;;6.75;2.58;;;;;;;;;;4937079;29;20036;-48
2021/09/08 07:04:33;;;;;;;10.63;2.88;;;;;;;;;;4937349;29;20024;-48
2021/09/08 07:06:59;;;;;;;9.73;2.78;;;;;;;;;;4936523;29;20043;-48
2021/09/08 07:09:25;;;;;;;6.93;3.00;;;;;;;;;;4937181;29;20530;-46
2021/09/08 07:11:51;;;;;;;5.60;2.55;;;;;;;;;;4936944;29;20036;-46
2021/09/08 07:14:18;;;;;;;9.77;2.47;;;;;;;;;;4936489;29;20381;-44
2021/09/08 07:16:44;;;;;;;13.80;6.30;;;;;;;;;;4936306;29;20032;-45
2021/09/08 07:19:10;;;;;;;8.82;3.28;;;;;;;;;;4936568;29;20110;-46
2021/09/08 07:21:36;;;;;;;16.83;6.70;;;;;;;;;;4936382;29;20472;-51
2021/09/08 07:24:02;;;;;;;29.60;14.90;;;;;;;;;;4936612;29;20023;-48
2021/09/08 07:26:33;;;;;;;62.95;31.88;;;;;;;;;;4936333;29;20615;-46
2021/09/08 07:29:05;;;;;;;6.90;3.22;;;;;;;;;;4936263;29;20020;-48
2021/09/08 07:31:33;;;;;;;9.10;2.70;;;;;;;;;;4936437;29;20024;-49
2021/09/08 07:34:00;;;;;;;7.68;2.40;;;;;;;;;;4936465;29;20054;-46
2021/09/08 07:36:26;;;;;;;5.18;2.97;;;;;;;;;;4936124;29;20059;-44
2021/09/08 07:38:55;;;;;;;4.63;2.58;;;;;;;;;;4936060;29;20088;-49
2021/09/08 07:41:21;;;;;;;4.93;2.38;;;;;;;;;;4935902;29;20504;-44
2021/09/08 07:43:48;;;;;;;5.43;2.10;;;;;;;;;;4935964;29;20030;-51
2021/09/08 07:46:14;;;;;;;6.82;2.53;;;;;;;;;;4935966;29;20027;-50
2021/09/08 07:48:40;;;;;;;8.57;2.15;;;;;;;;;;4935979;29;20030;-48
2021/09/08 07:51:07;;;;;;;5.65;2.13;;;;;;;;;;4935831;29;20491;-49
2021/09/08 07:53:33;;;;;;;5.78;2.00;;;;;;;;;;4935987;29;20111;-50
2021/09/08 07:55:59;;;;;;;8.15;2.30;;;;;;;;;;4935959;29;20031;-48
2021/09/08 07:58:25;;;;;;;10.18;4.30;;;;;;;;;;4935922;29;20040;-46
2021/09/08 08:00:51;;;;;;;57.97;30.35;;;;;;;;;;4935800;29;20039;-54
2021/09/08 08:03:20;;;;;;;18.85;6.97;;;;;;;;;;4935811;29;20035;-47
2021/09/08 08:05:46;;;;;;;7.60;3.05;;;;;;;;;;4935867;29;20043;-51
2021/09/08 08:08:13;;;;;;;7.03;1.52;;;;;;;;;;4935505;29;20043;-48
2021/09/08 08:10:42;;;;;;;64.40;40.92;;;;;;;;;;4935793;29;20362;-48
2021/09/08 08:13:08;;;;;;;113.63;78.60;;;;;;;;;;4935502;29;20062;-44
2021/09/08 08:15:34;;;;;;;74.28;30.25;;;;;;;;;;4935903;29;20032;-46
2021/09/08 08:18:00;;;;;;;101.57;82.00;;;;;;;;;;4935814;29;20106;-45
2021/09/08 08:20:27;;;;;;;8.15;3.78;;;;;;;;;;4935658;29;20034;-52
2021/09/08 08:22:54;;;;;;;6.13;3.53;;;;;;;;;;4935751;29;20031;-52
2021/09/08 08:25:26;;;;;;;7.95;2.03;;;;;;;;;;4935742;29;20564;-52
2021/09/08 08:27:52;;;;;;;10.32;2.10;;;;;;;;;;4935523;29;20095;-50
2021/09/08 08:30:18;;;;;;;13.23;2.05;;;;;;;;;;4935936;29;20026;-49
2021/09/08 08:32:45;;;;;;;33.30;15.75;;;;;;;;;;4935616;29;20086;-49
2021/09/08 08:35:11;;;;;;;17.15;7.13;;;;;;;;;;4935715;29;20495;-46
2021/09/08 08:37:37;;;;;;;19.30;6.68;;;;;;;;;;4935627;29;20039;-46
2021/09/08 08:40:04;;;;;;;6.28;2.97;;;;;;;;;;4937195;29;20027;-45
2021/09/08 08:42:31;;;;;;;9.93;1.80;;;;;;;;;;4947838;29;20024;-50
2021/09/08 08:44:57;;;;;;;4.38;1.80;;;;;;;;;;4946787;29;20094;-48
2021/09/08 08:47:28;;;;;;;9.15;2.00;;;;;;;;;;4948170;29;20396;-48
2021/09/08 08:49:54;;;;;;;7.63;2.00;;;;;;;;;;4948094;29;20046;-50
2021/09/08 08:52:20;;;;;;;7.13;1.98;;;;;;;;;;4946461;29;20087;-48
2021/09/08 08:54:46;;;;;;;5.95;2.35;;;;;;;;;;4947354;29;20456;-47
2021/09/08 08:57:17;;;;;;;9.82;1.52;;;;;;;;;;4956697;29;20031;-48
2021/09/08 08:59:44;;;;;;;7.82;1.80;;;;;;;;;;4958028;29;20063;-50
2021/09/08 09:02:24;;;;;;;6.72;2.08;;;;;;;;;;4958189;29;20441;-50
2021/09/08 09:04:51;;;;;;;5.32;2.63;;;;;;;;;;4958167;29;20028;-50
2021/09/08 09:07:28;;;;;;;4.38;1.92;;;;;;;;;;4957618;29;20511;-51
2021/09/08 09:10:01;;;;;;;8.68;2.40;;;;;;;;;;4957838;29;20031;-52
2021/09/08 09:12:32;;;;;;;5.82;1.85;;;;;;;;;;4957811;29;20027;-49
2021/09/08 09:14:59;;;;;;;7.05;2.05;;;;;;;;;;4957992;29;20050;-47
2021/09/08 09:17:27;;;;;;;5.63;2.03;;;;;;;;;;4944938;29;20481;-51
2021/09/08 09:19:55;;;;;;;3.45;1.95;;;;;;;;;;4938561;29;20404;-45
2021/09/08 09:22:25;;;;;;;10.30;2.20;;;;;;;;;;4938506;29;20475;-48
2021/09/08 09:24:52;;;;;;;4.70;1.70;;;;;;;;;;4938484;29;20071;-49
2021/09/08 09:27:18;;;;;;;11.48;2.20;;;;;;;;;;4938497;29;20444;-49
2021/09/08 09:29:45;;;;;;;5.68;2.03;;;;;;;;;;4938332;29;20503;-47
2021/09/08 09:32:11;;;;;;;8.43;2.63;;;;;;;;;;4938430;29;20028;-50
2021/09/08 09:34:42;;;;;;;4.57;2.10;;;;;;;;;;4938345;29;20065;-47
2021/09/08 09:37:08;;;;;;;6.40;2.15;;;;;;;;;;4938222;29;20039;-49
2021/09/08 09:39:36;;;;;;;6.70;2.03;;;;;;;;;;4938131;29;20063;-47
2021/09/08 09:42:09;;;;;;;5.53;2.13;;;;;;;;;;4938240;29;20114;-50
2021/09/08 09:44:35;;;;;;;5.53;1.77;;;;;;;;;;4938179;29;20016;-51
2021/09/08 09:47:03;;;;;;;4.68;2.28;;;;;;;;;;4938050;29;20111;-48
2021/09/08 09:49:34;;;;;;;7.80;2.55;;;;;;;;;;4938039;29;20034;-49
2021/09/08 09:52:03;;;;;;;15.75;2.72;;;;;;;;;;4937667;29;20035;-51
2021/09/08 09:54:29;;;;;;;3.67;2.10;;;;;;;;;;4937965;29;20503;-49
2021/09/08 09:56:55;;;;;;;7.97;2.50;;;;;;;;;;4937791;29;20123;-51
2021/09/08 09:59:22;;;;;;;7.97;1.98;;;;;;;;;;4937987;29;20027;-45
2021/09/08 10:01:49;;;;;;;6.35;1.90;;;;;;;;;;4937701;29;20484;-50
2021/09/08 10:04:16;;;;;;;8.80;2.53;;;;;;;;;;4937731;29;20031;-52
2021/09/08 10:06:43;;;;;;;9.25;2.20;;;;;;;;;;4937260;29;20032;-52
2021/09/08 10:09:12;;;;;;;8.35;2.30;;;;;;;;;;4937667;29;20032;-51
2021/09/08 10:11:44;;;;;;;5.45;2.20;;;;;;;;;;4937746;29;20082;-50
2021/09/08 10:14:21;;;;;;;7.45;2.17;;;;;;;;;;4937483;29;20031;-50
2021/09/08 10:16:49;;;;;;;5.10;1.70;;;;;;;;;;4937606;29;20401;-53
2021/09/08 10:19:26;;;;;;;5.00;2.22;;;;;;;;;;4937551;29;20511;-53
2021/09/08 10:21:52;;;;;;;5.85;1.98;;;;;;;;;;4937593;29;20094;-50
2021/09/08 10:24:20;;;;;;;8.05;2.40;;;;;;;;;;4937666;29;20027;-50
2021/09/08 10:26:47;;;;;;;8.73;2.10;;;;;;;;;;4937386;29;20053;-51
2021/09/08 10:29:15;;;;;;;9.00;1.83;;;;;;;;;;4937558;29;20028;-48
2021/09/08 10:31:42;;;;;;;5.75;1.75;;;;;;;;;;4937563;29;20055;-50
2021/09/08 10:34:11;;;;;;;3.35;2.22;;;;;;;;;;4937345;29;20024;-48
2021/09/08 10:36:39;;;;;;;12.23;2.30;;;;;;;;;;4937202;29;20032;-49
2021/09/08 10:39:08;;;;;;;9.43;2.40;;;;;;;;;;4937176;29;20043;-49
2021/09/08 10:41:42;;;;;;;6.35;2.15;;;;;;;;;;4937183;29;20481;-51
2021/09/08 10:44:08;;;;;;;11.90;2.75;;;;;;;;;;4935890;29;20397;-47
2021/09/08 10:46:49;;;;;;;8.85;2.67;;;;;;;;;;4937086;29;20472;-47
2021/09/08 10:49:34;;;;;;;2.60;1.83;;;;;;;;;;4937070;29;20032;-52
2021/09/08 10:52:00;;;;;;;7.03;2.25;;;;;;;;;;4937024;29;20107;-44
2021/09/08 10:54:26;;;;;;;6.15;2.30;;;;;;;;;;4937097;29;20023;-54
2021/09/08 10:56:52;;;;;;;4.97;2.35;;;;;;;;;;4936901;29;20024;-55
2021/09/08 10:59:18;;;;;;;5.45;2.40;;;;;;;;;;4936852;29;20027;-57
2021/09/08 11:01:45;;;;;;;9.20;2.50;;;;;;;;;;4936542;29;20043;-53
2021/09/08 11:04:14;;;;;;;12.10;2.90;;;;;;;;;;4936931;29;20028;-55
2021/09/08 11:06:44;;;;;;;5.28;2.72;;;;;;;;;;4936547;29;20032;-56
2021/09/08 11:09:13;;;;;;;6.57;2.42;;;;;;;;;;4944289;29;20043;-55
2021/09/08 11:11:59;;;;;;;9.98;3.10;;;;;;;;;;4946435;29;20488;-56
2021/09/08 11:14:43;;;;;;;32.13;20.60;;;;;;;;;;4945989;29;20095;-44
2021/09/08 11:17:17;;;;;;;48.67;19.13;;;;;;;;;;4946471;29;20034;-53
2021/09/08 11:19:48;;;;;;;24.33;11.45;;;;;;;;;;4945624;29;20026;-43
2021/09/08 11:22:18;;;;;;;32.80;13.43;;;;;;;;;;4944305;29;20116;-53
2021/09/08 11:24:44;;;;;;;10.45;4.53;;;;;;;;;;4945489;29;20094;-53
2021/09/08 11:27:10;;;;;;;6.45;2.83;;;;;;;;;;4946171;29;20503;-50
2021/09/08 11:29:36;;;;;;;5.55;2.60;;;;;;;;;;4944478;29;20075;-55
2021/09/08 11:32:02;;;;;;;7.00;2.70;;;;;;;;;;4945757;29;20023;-49
2021/09/08 11:34:29;;;;;;;4.75;2.40;;;;;;;;;;4945923;29;20103;-47
2021/09/08 11:36:56;;;;;;;6.63;3.22;;;;;;;;;;4944254;29;20020;-54
2021/09/08 11:39:27;;;;;;;8.52;4.47;;;;;;;;;;4944288;29;20036;-51
2021/09/08 11:41:54;;;;;;;;;;;;;;;;;;4944600;29;20023;-52
2021/09/08 11:44:20;;;;;;;122.03;90.72;;;;;;;;;;4945989;29;19906;-52
2021/09/08 11:46:46;;;;;;;12.43;5.32;;;;;;;;;;4945321;29;20020;-47
2021/09/08 11:49:12;;;;;;;24.00;11.18;;;;;;;;;;4944331;29;20038;-47
2021/09/08 11:51:43;;;;;;;38.30;24.85;;;;;;;;;;4944292;29;20024;-45
2021/09/08 11:54:14;;;;;;;14.63;5.78;;;;;;;;;;4944824;29;20094;-53
2021/09/08 11:56:40;;;;;;;13.80;7.43;;;;;;;;;;4943567;29;20079;-52
2021/09/08 11:59:06;;;;;;;16.27;9.05;;;;;;;;;;4936055;29;20087;-53
2021/09/08 12:01:38;;;;;;;18.33;9.80;;;;;;;;;;4936641;29;20491;-45
2021/09/08 12:04:04;;;;;;;13.35;6.45;;;;;;;;;;4939450;29;20163;-52
2021/09/08 12:06:31;;;;;;;17.00;7.20;;;;;;;;;;4935664;29;20031;-50
2021/09/08 12:09:10;;;;;;;8.98;4.53;;;;;;;;;;4935926;29;20123;-54
2021/09/08 12:11:40;;;;;;;6.90;4.40;;;;;;;;;;4936138;29;20031;-53
2021/09/08 12:14:16;;;;;;;14.00;6.80;;;;;;;;;;4936457;29;20034;-56
2021/09/08 12:16:43;;;;;;;12.00;4.82;;;;;;;;;;4939822;29;20110;-53
2021/09/08 12:19:21;;;;;;;7.97;4.40;;;;;;;;;;4939739;29;20115;-51
2021/09/08 12:21:47;;;;;;;21.58;11.07;;;;;;;;;;4939614;29;20054;-50
2021/09/08 12:24:21;;;;;;;21.73;12.40;;;;;;;;;;4939694;29;20034;-51
2021/09/08 12:26:47;;;;;;;6.38;4.55;;;;;;;;;;4939707;29;20027;-54
2021/09/08 12:29:14;;;;;;;40.05;16.67;;;;;;;;;;4939581;29;20452;-47
2021/09/08 12:31:46;;;;;;;69.68;42.78;;;;;;;;;;4939427;29;20429;-54
2021/09/08 12:34:13;;;;;;;15.93;6.68;;;;;;;;;;4939605;29;20019;-56
2021/09/08 12:36:41;;;;;;;9.27;4.85;;;;;;;;;;4944059;29;20547;-46
2021/09/08 12:39:10;;;;;;;6.30;3.95;;;;;;;;;;4948163;29;20028;-51
2021/09/08 12:41:38;;;;;;;57.47;32.10;;;;;;;;;;4947542;29;20046;-52
2021/09/08 12:44:05;;;;;;;12.55;7.00;;;;;;;;;;4949131;28;20027;-54
2021/09/08 12:46:37;;;;;;;50.33;24.52;;;;;;;;;;4948438;29;20119;-50
2021/09/08 12:49:04;;;;;;;13.73;6.20;;;;;;;;;;4949204;29;20103;-55
2021/09/08 12:51:30;;;;;;;10.15;5.55;;;;;;;;;;4948403;29;20024;-54
2021/09/08 12:53:56;;;;;;;12.80;7.03;;;;;;;;;;4947806;29;20393;-48
2021/09/08 12:56:22;;;;;;;11.73;6.82;;;;;;;;;;4946560;29;20106;-53
2021/09/08 12:58:48;;;;;;;12.45;6.60;;;;;;;;;;4948820;29;20027;-51
2021/09/08 13:01:14;;;;;;;17.60;9.70;;;;;;;;;;4948589;29;20027;-48
2021/09/08 13:03:40;;;;;;;97.53;59.75;;;;;;;;;;4947026;29;20024;-53
2021/09/08 13:06:06;;;;;;;86.25;48.70;;;;;;;;;;4948458;29;20022;-55
2021/09/08 13:08:32;;;;;;;13.70;7.40;;;;;;;;;;4948175;29;20523;-54
2021/09/08 13:10:58;;;;;;;9.07;5.70;;;;;;;;;;4946927;29;20433;-53
2021/09/08 13:13:25;;;;;;;5.07;2.80;;;;;;;;;;4948553;29;20027;-53
2021/09/08 13:15:51;;;;;;;5.75;2.97;;;;;;;;;;4948004;29;20074;-53
2021/09/08 13:18:17;;;;;;;6.13;2.30;;;;;;;;;;4947079;29;20066;-55
2021/09/08 13:20:47;;;;;;;3.90;2.28;;;;;;;;;;4941070;29;20028;-54
2021/09/08 13:23:13;;;;;;;3.78;2.33;;;;;;;;;;4938669;29;20054;-44
2021/09/08 13:25:42;;;;;;;6.68;2.60;;;;;;;;;;4938019;29;20020;-48
2021/09/08 13:28:08;;;;;;;4.85;2.70;;;;;;;;;;4947889;29;20435;-55
2021/09/08 13:30:34;;;;;;;11.50;5.82;;;;;;;;;;4957594;29;20023;-55
2021/09/08 13:33:00;;;;;;;7.50;4.55;;;;;;;;;;4957787;29;20034;-53
2021/09/08 13:35:26;;;;;;;3.78;2.60;;;;;;;;;;4957533;29;20031;-53
2021/09/08 13:37:52;;;;;;;5.72;2.70;;;;;;;;;;4957529;29;20042;-53
2021/09/08 13:40:18;;;;;;;5.00;2.55;;;;;;;;;;4956208;29;20035;-50
2021/09/08 13:42:47;;;;;;;6.53;2.15;;;;;;;;;;4957243;29;20456;-52
2021/09/08 13:45:13;;;;;;;6.07;2.80;;;;;;;;;;4957414;29;20057;-54
2021/09/08 13:47:39;;;;;;;10.45;4.95;;;;;;;;;;4956143;29;20050;-51
2021/09/08 13:50:05;;;;;;;34.38;15.52;;;;;;;;;;4957306;29;20456;-55
2021/09/08 13:52:31;;;;;;;25.67;14.40;;;;;;;;;;4957401;29;20027;-54
2021/09/08 13:55:00;;;;;;;4.65;3.42;;;;;;;;;;4957344;29;20571;-51
2021/09/08 13:57:26;;;;;;;9.30;3.35;;;;;;;;;;4957163;29;20040;-57
2021/09/08 13:59:52;;;;;;;5.07;2.80;;;;;;;;;;4951190;29;20488;-57
2021/09/08 14:02:18;;;;;;;13.85;7.80;;;;;;;;;;4954258;29;20114;-55
2021/09/08 14:04:44;;;;;;;10.18;5.82;;;;;;;;;;4957081;29;20058;-55
2021/09/08 14:07:10;;;;;;;6.53;2.83;;;;;;;;;;4956795;29;20047;-57
2021/09/08 14:09:36;;;;;;;4.97;3.10;;;;;;;;;;4957089;29;20384;-55
2021/09/08 14:12:03;;;;;;;5.95;4.13;;;;;;;;;;4957039;29;20031;-55
2021/09/08 14:14:29;;;;;;;13.43;8.65;;;;;;;;;;4956774;29;20034;-54
2021/09/08 14:16:55;;;;;;;7.47;5.32;;;;;;;;;;4956830;29;20027;-54
2021/09/08 14:19:21;;;;;;;12.35;5.30;;;;;;;;;;4951823;29;20502;-55
2021/09/08 14:21:47;;;;;;;8.45;4.60;;;;;;;;;;4946994;29;20039;-53
2021/09/08 14:24:14;;;;;;;4.65;2.22;;;;;;;;;;4945903;29;20098;-54
2021/09/08 14:26:41;;;;;;;8.38;3.95;;;;;;;;;;4946529;29;20026;-55
2021/09/08 14:29:10;;;;;;;7.72;4.68;;;;;;;;;;4947551;29;20023;-48
2021/09/08 14:31:38;;;;;;;6.45;3.88;;;;;;;;;;4945970;29;20099;-56
2021/09/08 14:34:05;;;;;;;7.72;4.25;;;;;;;;;;4945903;29;20433;-55